sensor_id;sensor_type;location;lat;lon;timestamp;P1;durP1;ratioP1;P2;durP2;ratioP2
23668;SDS011;12011;47.422;15.018;2024-02-26T00:00:37;6.31;;;6.21;;
23668;SDS011;12011;47.422;15.018;2024-02-26T00:03:07;5.30;;;5.27;;
23668;SDS011;12011;47.422;15.018;2024-02-26T00:05:36;4.33;;;4.29;;
23668;SDS011;12011;47.422;15.018;2024-02-26T00:08:06;3.40;;;3.37;;
23668;SDS011;12011;47.422;15.018;2024-02-26T00:10:35;3.77;;;3.72;;
23668;SDS011;12011;47.422;15.018;2024-02-26T00:13:08;3.84;;;3.80;;
23668;SDS011;12011;47.422;15.018;2024-02-26T00:15:37;3.35;;;3.31;;
23668;SDS011;12011;47.422;15.018;2024-02-26T00:18:07;4.18;;;4.12;;
23668;SDS011;12011;47.422;15.018;2024-02-26T00:20:36;3.85;;;3.80;;
23668;SDS011;12011;47.422;15.018;2024-02-26T00:23:08;4.17;;;4.14;;
23668;SDS011;12011;47.422;15.018;2024-02-26T00:25:40;3.70;;;3.67;;
23668;SDS011;12011;47.422;15.018;2024-02-26T00:28:10;3.40;;;3.36;;
23668;SDS011;12011;47.422;15.018;2024-02-26T00:30:39;3.43;;;3.40;;
23668;SDS011;12011;47.422;15.018;2024-02-26T00:33:09;4.88;;;4.84;;
23668;SDS011;12011;47.422;15.018;2024-02-26T00:35:38;4.16;;;4.12;;
23668;SDS011;12011;47.422;15.018;2024-02-26T00:38:07;4.17;;;4.14;;
23668;SDS011;12011;47.422;15.018;2024-02-26T00:40:39;4.05;;;4.02;;
23668;SDS011;12011;47.422;15.018;2024-02-26T00:43:09;4.22;;;4.18;;
23668;SDS011;12011;47.422;15.018;2024-02-26T00:45:38;3.48;;;3.44;;
23668;SDS011;12011;47.422;15.018;2024-02-26T00:48:08;3.78;;;3.72;;
23668;SDS011;12011;47.422;15.018;2024-02-26T00:50:39;3.52;;;3.48;;
23668;SDS011;12011;47.422;15.018;2024-02-26T00:53:08;3.31;;;3.29;;
23668;SDS011;12011;47.422;15.018;2024-02-26T00:55:40;3.45;;;3.44;;
23668;SDS011;12011;47.422;15.018;2024-02-26T00:58:10;3.24;;;3.23;;
23668;SDS011;12011;47.422;15.018;2024-02-26T01:00:39;3.49;;;3.47;;
23668;SDS011;12011;47.422;15.018;2024-02-26T01:03:08;6.06;;;6.03;;
23668;SDS011;12011;47.422;15.018;2024-02-26T01:05:38;5.65;;;5.63;;
23668;SDS011;12011;47.422;15.018;2024-02-26T01:08:07;6.93;;;6.88;;
23668;SDS011;12011;47.422;15.018;2024-02-26T01:10:36;6.60;;;6.56;;
23668;SDS011;12011;47.422;15.018;2024-02-26T01:13:09;6.13;;;6.08;;
23668;SDS011;12011;47.422;15.018;2024-02-26T01:15:38;5.39;;;5.29;;
23668;SDS011;12011;47.422;15.018;2024-02-26T01:18:09;4.53;;;4.46;;
23668;SDS011;12011;47.422;15.018;2024-02-26T01:20:41;4.19;;;4.15;;
23668;SDS011;12011;47.422;15.018;2024-02-26T01:23:10;4.18;;;4.15;;
23668;SDS011;12011;47.422;15.018;2024-02-26T01:25:43;6.13;;;6.06;;
23668;SDS011;12011;47.422;15.018;2024-02-26T01:28:12;5.67;;;5.58;;
23668;SDS011;12011;47.422;15.018;2024-02-26T01:30:42;5.00;;;4.89;;
23668;SDS011;12011;47.422;15.018;2024-02-26T01:33:12;6.76;;;6.59;;
23668;SDS011;12011;47.422;15.018;2024-02-26T01:35:41;7.68;;;7.54;;
23668;SDS011;12011;47.422;15.018;2024-02-26T01:38:12;7.34;;;7.20;;
23668;SDS011;12011;47.422;15.018;2024-02-26T01:40:44;7.34;;;7.26;;
23668;SDS011;12011;47.422;15.018;2024-02-26T01:43:13;8.26;;;8.16;;
23668;SDS011;12011;47.422;15.018;2024-02-26T01:45:43;7.35;;;7.24;;
23668;SDS011;12011;47.422;15.018;2024-02-26T01:48:12;7.32;;;7.27;;
23668;SDS011;12011;47.422;15.018;2024-02-26T01:50:41;7.44;;;7.32;;
23668;SDS011;12011;47.422;15.018;2024-02-26T01:53:11;7.81;;;7.68;;
23668;SDS011;12011;47.422;15.018;2024-02-26T01:55:45;7.90;;;7.75;;
23668;SDS011;12011;47.422;15.018;2024-02-26T01:58:14;7.58;;;7.37;;
23668;SDS011;12011;47.422;15.018;2024-02-26T02:00:45;7.26;;;7.15;;
23668;SDS011;12011;47.422;15.018;2024-02-26T02:03:15;7.25;;;7.18;;
23668;SDS011;12011;47.422;15.018;2024-02-26T02:05:45;6.82;;;6.72;;
23668;SDS011;12011;47.422;15.018;2024-02-26T02:08:15;6.92;;;6.79;;
23668;SDS011;12011;47.422;15.018;2024-02-26T02:10:47;8.22;;;7.94;;
23668;SDS011;12011;47.422;15.018;2024-02-26T02:13:17;14.33;;;13.03;;
23668;SDS011;12011;47.422;15.018;2024-02-26T02:15:47;13.27;;;11.87;;
23668;SDS011;12011;47.422;15.018;2024-02-26T02:18:16;13.46;;;12.23;;
23668;SDS011;12011;47.422;15.018;2024-02-26T02:20:50;13.28;;;12.39;;
23668;SDS011;12011;47.422;15.018;2024-02-26T02:23:21;14.17;;;13.20;;
23668;SDS011;12011;47.422;15.018;2024-02-26T02:25:51;15.86;;;14.56;;
23668;SDS011;12011;47.422;15.018;2024-02-26T02:28:21;17.40;;;15.89;;
23668;SDS011;12011;47.422;15.018;2024-02-26T02:30:50;16.37;;;15.11;;
23668;SDS011;12011;47.422;15.018;2024-02-26T02:33:20;13.51;;;12.93;;
23668;SDS011;12011;47.422;15.018;2024-02-26T02:35:53;15.17;;;13.92;;
23668;SDS011;12011;47.422;15.018;2024-02-26T02:38:23;25.35;;;18.91;;
23668;SDS011;12011;47.422;15.018;2024-02-26T02:40:55;23.68;;;17.45;;
23668;SDS011;12011;47.422;15.018;2024-02-26T02:43:24;16.16;;;14.17;;
23668;SDS011;12011;47.422;15.018;2024-02-26T02:45:54;12.52;;;11.54;;
23668;SDS011;12011;47.422;15.018;2024-02-26T02:48:23;9.91;;;9.60;;
23668;SDS011;12011;47.422;15.018;2024-02-26T02:50:55;10.94;;;10.46;;
23668;SDS011;12011;47.422;15.018;2024-02-26T02:53:25;10.41;;;9.74;;
23668;SDS011;12011;47.422;15.018;2024-02-26T02:55:54;11.02;;;10.36;;
23668;SDS011;12011;47.422;15.018;2024-02-26T02:58:24;11.62;;;10.82;;
23668;SDS011;12011;47.422;15.018;2024-02-26T03:00:53;12.36;;;11.51;;
23668;SDS011;12011;47.422;15.018;2024-02-26T03:03:23;11.96;;;11.33;;
23668;SDS011;12011;47.422;15.018;2024-02-26T03:05:56;13.37;;;12.31;;
23668;SDS011;12011;47.422;15.018;2024-02-26T03:08:26;12.49;;;11.42;;
23668;SDS011;12011;47.422;15.018;2024-02-26T03:10:55;11.36;;;10.66;;
23668;SDS011;12011;47.422;15.018;2024-02-26T03:13:27;11.52;;;10.83;;
23668;SDS011;12011;47.422;15.018;2024-02-26T03:15:56;11.56;;;10.89;;
23668;SDS011;12011;47.422;15.018;2024-02-26T03:18:26;12.62;;;11.46;;
23668;SDS011;12011;47.422;15.018;2024-02-26T03:20:58;11.86;;;11.01;;
23668;SDS011;12011;47.422;15.018;2024-02-26T03:23:27;12.12;;;11.13;;
23668;SDS011;12011;47.422;15.018;2024-02-26T03:25:57;11.59;;;10.61;;
23668;SDS011;12011;47.422;15.018;2024-02-26T03:28:27;10.26;;;9.71;;
23668;SDS011;12011;47.422;15.018;2024-02-26T03:30:58;12.46;;;11.32;;
23668;SDS011;12011;47.422;15.018;2024-02-26T03:33:27;12.52;;;10.97;;
23668;SDS011;12011;47.422;15.018;2024-02-26T03:35:59;12.11;;;10.87;;
23668;SDS011;12011;47.422;15.018;2024-02-26T03:38:29;12.55;;;11.32;;
23668;SDS011;12011;47.422;15.018;2024-02-26T03:40:58;10.36;;;9.82;;
23668;SDS011;12011;47.422;15.018;2024-02-26T03:43:28;10.20;;;9.62;;
23668;SDS011;12011;47.422;15.018;2024-02-26T03:45:58;10.45;;;9.70;;
23668;SDS011;12011;47.422;15.018;2024-02-26T03:48:27;9.89;;;9.44;;
23668;SDS011;12011;47.422;15.018;2024-02-26T03:50:59;10.26;;;9.64;;
23668;SDS011;12011;47.422;15.018;2024-02-26T03:53:29;11.42;;;10.45;;
23668;SDS011;12011;47.422;15.018;2024-02-26T03:56:02;9.74;;;9.25;;
23668;SDS011;12011;47.422;15.018;2024-02-26T03:58:32;10.28;;;9.54;;
23668;SDS011;12011;47.422;15.018;2024-02-26T04:01:02;12.25;;;10.81;;
23668;SDS011;12011;47.422;15.018;2024-02-26T04:03:32;13.46;;;11.47;;
23668;SDS011;12011;47.422;15.018;2024-02-26T04:06:04;13.38;;;10.87;;
23668;SDS011;12011;47.422;15.018;2024-02-26T04:08:36;13.53;;;11.28;;
23668;SDS011;12011;47.422;15.018;2024-02-26T04:11:06;10.69;;;9.58;;
23668;SDS011;12011;47.422;15.018;2024-02-26T04:13:37;10.94;;;10.07;;
23668;SDS011;12011;47.422;15.018;2024-02-26T04:16:06;8.99;;;8.49;;
23668;SDS011;12011;47.422;15.018;2024-02-26T04:18:36;8.90;;;8.43;;
23668;SDS011;12011;47.422;15.018;2024-02-26T04:21:08;8.20;;;7.86;;
23668;SDS011;12011;47.422;15.018;2024-02-26T04:23:38;8.06;;;7.74;;
23668;SDS011;12011;47.422;15.018;2024-02-26T04:26:07;7.82;;;7.55;;
23668;SDS011;12011;47.422;15.018;2024-02-26T04:28:36;7.52;;;7.32;;
23668;SDS011;12011;47.422;15.018;2024-02-26T04:31:06;7.97;;;7.84;;
23668;SDS011;12011;47.422;15.018;2024-02-26T04:33:35;7.39;;;7.30;;
23668;SDS011;12011;47.422;15.018;2024-02-26T04:36:04;7.51;;;7.34;;
23668;SDS011;12011;47.422;15.018;2024-02-26T04:38:37;7.07;;;6.86;;
23668;SDS011;12011;47.422;15.018;2024-02-26T04:41:07;7.08;;;6.74;;
23668;SDS011;12011;47.422;15.018;2024-02-26T04:43:38;6.20;;;5.96;;
23668;SDS011;12011;47.422;15.018;2024-02-26T04:46:08;6.29;;;6.09;;
23668;SDS011;12011;47.422;15.018;2024-02-26T04:48:38;6.52;;;6.38;;
23668;SDS011;12011;47.422;15.018;2024-02-26T04:51:07;6.73;;;6.65;;
23668;SDS011;12011;47.422;15.018;2024-02-26T04:53:39;6.66;;;6.53;;
23668;SDS011;12011;47.422;15.018;2024-02-26T04:56:13;6.61;;;6.49;;
23668;SDS011;12011;47.422;15.018;2024-02-26T04:58:47;7.53;;;7.35;;
23668;SDS011;12011;47.422;15.018;2024-02-26T05:01:21;7.43;;;7.20;;
23668;SDS011;12011;47.422;15.018;2024-02-26T05:04:01;7.97;;;7.56;;
23668;SDS011;12011;47.422;15.018;2024-02-26T05:06:34;8.06;;;7.54;;
23668;SDS011;12011;47.422;15.018;2024-02-26T05:09:13;7.00;;;6.65;;
23668;SDS011;12011;47.422;15.018;2024-02-26T05:11:46;7.17;;;6.94;;
23668;SDS011;12011;47.422;15.018;2024-02-26T05:14:20;7.73;;;7.49;;
23668;SDS011;12011;47.422;15.018;2024-02-26T05:16:51;7.73;;;7.53;;
23668;SDS011;12011;47.422;15.018;2024-02-26T05:19:21;7.59;;;7.41;;
23668;SDS011;12011;47.422;15.018;2024-02-26T05:22:03;7.22;;;7.01;;
23668;SDS011;12011;47.422;15.018;2024-02-26T05:24:39;7.23;;;7.01;;
23668;SDS011;12011;47.422;15.018;2024-02-26T05:27:14;6.94;;;6.67;;
23668;SDS011;12011;47.422;15.018;2024-02-26T05:29:47;7.45;;;7.16;;
23668;SDS011;12011;47.422;15.018;2024-02-26T05:32:20;8.10;;;7.83;;
23668;SDS011;12011;47.422;15.018;2024-02-26T05:34:49;7.94;;;7.70;;
23668;SDS011;12011;47.422;15.018;2024-02-26T05:37:22;8.49;;;8.15;;
23668;SDS011;12011;47.422;15.018;2024-02-26T05:39:57;9.28;;;8.85;;
23668;SDS011;12011;47.422;15.018;2024-02-26T05:42:30;8.99;;;8.61;;
23668;SDS011;12011;47.422;15.018;2024-02-26T05:45:03;9.11;;;8.76;;
23668;SDS011;12011;47.422;15.018;2024-02-26T05:47:37;8.91;;;8.60;;
23668;SDS011;12011;47.422;15.018;2024-02-26T05:50:09;9.12;;;8.72;;
23668;SDS011;12011;47.422;15.018;2024-02-26T05:52:44;8.78;;;8.37;;
23668;SDS011;12011;47.422;15.018;2024-02-26T05:55:18;9.11;;;8.63;;
23668;SDS011;12011;47.422;15.018;2024-02-26T05:57:55;8.65;;;8.18;;
23668;SDS011;12011;47.422;15.018;2024-02-26T06:00:29;8.81;;;8.29;;
23668;SDS011;12011;47.422;15.018;2024-02-26T06:03:02;8.92;;;8.51;;
23668;SDS011;12011;47.422;15.018;2024-02-26T06:05:42;8.40;;;8.00;;
23668;SDS011;12011;47.422;15.018;2024-02-26T06:08:16;9.16;;;8.74;;
23668;SDS011;12011;47.422;15.018;2024-02-26T06:10:49;9.31;;;8.79;;
23668;SDS011;12011;47.422;15.018;2024-02-26T06:13:18;9.18;;;8.69;;
23668;SDS011;12011;47.422;15.018;2024-02-26T06:15:48;9.21;;;8.61;;
23668;SDS011;12011;47.422;15.018;2024-02-26T06:18:17;9.66;;;9.24;;
23668;SDS011;12011;47.422;15.018;2024-02-26T06:20:47;10.08;;;9.63;;
23668;SDS011;12011;47.422;15.018;2024-02-26T06:23:16;9.25;;;8.76;;
23668;SDS011;12011;47.422;15.018;2024-02-26T06:25:48;9.17;;;8.78;;
23668;SDS011;12011;47.422;15.018;2024-02-26T06:28:18;10.21;;;9.62;;
23668;SDS011;12011;47.422;15.018;2024-02-26T06:30:47;9.76;;;9.34;;
23668;SDS011;12011;47.422;15.018;2024-02-26T06:33:18;10.00;;;9.45;;
23668;SDS011;12011;47.422;15.018;2024-02-26T06:35:47;10.62;;;9.79;;
23668;SDS011;12011;47.422;15.018;2024-02-26T06:38:16;11.54;;;10.55;;
23668;SDS011;12011;47.422;15.018;2024-02-26T06:40:49;10.46;;;10.01;;
23668;SDS011;12011;47.422;15.018;2024-02-26T06:43:18;11.87;;;11.17;;
23668;SDS011;12011;47.422;15.018;2024-02-26T06:45:47;11.02;;;10.32;;
23668;SDS011;12011;47.422;15.018;2024-02-26T06:48:17;11.79;;;10.68;;
23668;SDS011;12011;47.422;15.018;2024-02-26T06:50:47;10.07;;;9.48;;
23668;SDS011;12011;47.422;15.018;2024-02-26T06:53:16;9.99;;;9.50;;
23668;SDS011;12011;47.422;15.018;2024-02-26T06:55:45;10.57;;;10.16;;
23668;SDS011;12011;47.422;15.018;2024-02-26T06:58:17;10.30;;;10.11;;
23668;SDS011;12011;47.422;15.018;2024-02-26T07:00:47;11.22;;;10.83;;
23668;SDS011;12011;47.422;15.018;2024-02-26T07:03:17;11.17;;;10.85;;
23668;SDS011;12011;47.422;15.018;2024-02-26T07:05:48;10.70;;;10.37;;
23668;SDS011;12011;47.422;15.018;2024-02-26T07:08:18;10.93;;;10.62;;
23668;SDS011;12011;47.422;15.018;2024-02-26T07:10:50;10.95;;;10.77;;
23668;SDS011;12011;47.422;15.018;2024-02-26T07:13:19;10.93;;;10.66;;
23668;SDS011;12011;47.422;15.018;2024-02-26T07:15:49;10.52;;;10.16;;
23668;SDS011;12011;47.422;15.018;2024-02-26T07:18:18;10.78;;;10.55;;
23668;SDS011;12011;47.422;15.018;2024-02-26T07:20:48;10.39;;;10.15;;
23668;SDS011;12011;47.422;15.018;2024-02-26T07:23:17;10.85;;;10.47;;
23668;SDS011;12011;47.422;15.018;2024-02-26T07:25:49;10.65;;;10.26;;
23668;SDS011;12011;47.422;15.018;2024-02-26T07:28:19;10.90;;;10.36;;
23668;SDS011;12011;47.422;15.018;2024-02-26T07:30:48;10.70;;;10.42;;
23668;SDS011;12011;47.422;15.018;2024-02-26T07:33:18;11.18;;;10.88;;
23668;SDS011;12011;47.422;15.018;2024-02-26T07:38:30;11.85;;;11.23;;
23668;SDS011;12011;47.422;15.018;2024-02-26T07:41:23;10.25;;;9.90;;
23668;SDS011;12011;47.422;15.018;2024-02-26T07:44:12;10.52;;;10.25;;
23668;SDS011;12011;47.422;15.018;2024-02-26T07:47:03;9.73;;;9.50;;
23668;SDS011;12011;47.422;15.018;2024-02-26T09:04:21;12.75;;;12.60;;
23668;SDS011;12011;47.422;15.018;2024-02-26T09:07:12;13.32;;;12.99;;
23668;SDS011;12011;47.422;15.018;2024-02-26T09:10:02;12.60;;;12.24;;
23668;SDS011;12011;47.422;15.018;2024-02-26T09:12:54;12.17;;;11.99;;
23668;SDS011;12011;47.422;15.018;2024-02-26T09:15:44;11.74;;;11.55;;
23668;SDS011;12011;47.422;15.018;2024-02-26T09:18:33;11.70;;;11.46;;
23668;SDS011;12011;47.422;15.018;2024-02-26T09:21:25;12.40;;;12.23;;
23668;SDS011;12011;47.422;15.018;2024-02-26T09:24:16;12.82;;;12.62;;
23668;SDS011;12011;47.422;15.018;2024-02-26T09:27:06;13.38;;;13.05;;
23668;SDS011;12011;47.422;15.018;2024-02-26T09:29:56;13.18;;;12.83;;
23668;SDS011;12011;47.422;15.018;2024-02-26T09:32:46;12.95;;;12.73;;
23668;SDS011;12011;47.422;15.018;2024-02-26T09:35:36;14.22;;;13.94;;
23668;SDS011;12011;47.422;15.018;2024-02-26T09:38:29;15.47;;;15.12;;
23668;SDS011;12011;47.422;15.018;2024-02-26T09:41:22;14.85;;;14.60;;
23668;SDS011;12011;47.422;15.018;2024-02-26T09:44:12;13.74;;;13.49;;
23668;SDS011;12011;47.422;15.018;2024-02-26T09:47:08;12.84;;;12.55;;
23668;SDS011;12011;47.422;15.018;2024-02-26T09:50:03;10.86;;;10.68;;
23668;SDS011;12011;47.422;15.018;2024-02-26T09:52:58;11.17;;;11.00;;
23668;SDS011;12011;47.422;15.018;2024-02-26T09:55:51;12.44;;;12.23;;
23668;SDS011;12011;47.422;15.018;2024-02-26T09:58:41;11.91;;;11.73;;
23668;SDS011;12011;47.422;15.018;2024-02-26T10:01:34;10.70;;;10.59;;
23668;SDS011;12011;47.422;15.018;2024-02-26T10:04:25;10.07;;;9.97;;
23668;SDS011;12011;47.422;15.018;2024-02-26T10:07:16;10.16;;;10.09;;
23668;SDS011;12011;47.422;15.018;2024-02-26T10:10:06;11.04;;;10.93;;
23668;SDS011;12011;47.422;15.018;2024-02-26T10:13:01;10.61;;;10.51;;
23668;SDS011;12011;47.422;15.018;2024-02-26T10:15:55;11.26;;;11.19;;
23668;SDS011;12011;47.422;15.018;2024-02-26T10:18:46;11.42;;;11.36;;
23668;SDS011;12011;47.422;15.018;2024-02-26T10:21:36;11.44;;;11.26;;
23668;SDS011;12011;47.422;15.018;2024-02-26T10:24:28;11.44;;;11.23;;
23668;SDS011;12011;47.422;15.018;2024-02-26T10:27:20;11.24;;;11.18;;
23668;SDS011;12011;47.422;15.018;2024-02-26T10:30:20;11.19;;;11.07;;
23668;SDS011;12011;47.422;15.018;2024-02-26T10:33:12;10.98;;;10.89;;
23668;SDS011;12011;47.422;15.018;2024-02-26T10:36:02;11.05;;;10.97;;
23668;SDS011;12011;47.422;15.018;2024-02-26T10:38:54;10.13;;;10.07;;
23668;SDS011;12011;47.422;15.018;2024-02-26T10:41:44;10.19;;;10.09;;
23668;SDS011;12011;47.422;15.018;2024-02-26T10:44:34;10.20;;;10.06;;
23668;SDS011;12011;47.422;15.018;2024-02-26T10:47:26;11.43;;;11.32;;
23668;SDS011;12011;47.422;15.018;2024-02-26T10:50:17;11.94;;;11.88;;
23668;SDS011;12011;47.422;15.018;2024-02-26T10:53:12;11.00;;;10.88;;
23668;SDS011;12011;47.422;15.018;2024-02-26T10:56:06;9.82;;;9.79;;
23668;SDS011;12011;47.422;15.018;2024-02-26T10:58:57;10.98;;;10.93;;
23668;SDS011;12011;47.422;15.018;2024-02-26T11:01:48;10.34;;;10.27;;
23668;SDS011;12011;47.422;15.018;2024-02-26T11:04:41;9.61;;;9.56;;
23668;SDS011;12011;47.422;15.018;2024-02-26T11:07:33;9.48;;;9.40;;
23668;SDS011;12011;47.422;15.018;2024-02-26T11:10:24;9.39;;;9.37;;
23668;SDS011;12011;47.422;15.018;2024-02-26T11:13:18;8.43;;;8.39;;
23668;SDS011;12011;47.422;15.018;2024-02-26T11:16:11;6.73;;;6.72;;
23668;SDS011;12011;47.422;15.018;2024-02-26T11:19:02;5.86;;;5.84;;
23668;SDS011;12011;47.422;15.018;2024-02-26T11:21:55;5.86;;;5.82;;
23668;SDS011;12011;47.422;15.018;2024-02-26T11:24:47;5.73;;;5.69;;
23668;SDS011;12011;47.422;15.018;2024-02-26T11:27:38;4.86;;;4.86;;
23668;SDS011;12011;47.422;15.018;2024-02-26T11:30:34;4.36;;;4.33;;
23668;SDS011;12011;47.422;15.018;2024-02-26T11:33:30;3.73;;;3.72;;
23668;SDS011;12011;47.422;15.018;2024-02-26T11:36:21;2.43;;;2.43;;
23668;SDS011;12011;47.422;15.018;2024-02-26T11:39:16;1.53;;;1.53;;
23668;SDS011;12011;47.422;15.018;2024-02-26T11:42:06;1.87;;;1.87;;
23668;SDS011;12011;47.422;15.018;2024-02-26T11:44:57;2.65;;;2.64;;
23668;SDS011;12011;47.422;15.018;2024-02-26T11:47:55;2.47;;;2.47;;
23668;SDS011;12011;47.422;15.018;2024-02-26T11:50:46;2.50;;;2.49;;
23668;SDS011;12011;47.422;15.018;2024-02-26T11:53:38;2.69;;;2.68;;
23668;SDS011;12011;47.422;15.018;2024-02-26T11:56:40;2.12;;;2.12;;
23668;SDS011;12011;47.422;15.018;2024-02-26T11:59:37;1.09;;;1.08;;
23668;SDS011;12011;47.422;15.018;2024-02-26T12:02:40;0.93;;;0.93;;
23668;SDS011;12011;47.422;15.018;2024-02-26T12:05:34;0.86;;;0.86;;
23668;SDS011;12011;47.422;15.018;2024-02-26T12:08:25;0.79;;;0.79;;
23668;SDS011;12011;47.422;15.018;2024-02-26T12:11:14;1.08;;;1.08;;
23668;SDS011;12011;47.422;15.018;2024-02-26T12:14:08;1.23;;;1.23;;
23668;SDS011;12011;47.422;15.018;2024-02-26T12:16:59;1.11;;;1.11;;
23668;SDS011;12011;47.422;15.018;2024-02-26T12:19:51;1.15;;;1.15;;
23668;SDS011;12011;47.422;15.018;2024-02-26T12:22:41;1.40;;;1.40;;
23668;SDS011;12011;47.422;15.018;2024-02-26T12:25:35;1.34;;;1.33;;
23668;SDS011;12011;47.422;15.018;2024-02-26T12:28:27;0.92;;;0.92;;
23668;SDS011;12011;47.422;15.018;2024-02-26T12:31:19;0.91;;;0.91;;
23668;SDS011;12011;47.422;15.018;2024-02-26T12:34:09;0.75;;;0.75;;
23668;SDS011;12011;47.422;15.018;2024-02-26T12:36:59;0.72;;;0.72;;
23668;SDS011;12011;47.422;15.018;2024-02-26T12:39:53;0.82;;;0.82;;
23668;SDS011;12011;47.422;15.018;2024-02-26T12:42:43;0.92;;;0.92;;
23668;SDS011;12011;47.422;15.018;2024-02-26T12:45:33;0.74;;;0.74;;
23668;SDS011;12011;47.422;15.018;2024-02-26T12:48:25;0.74;;;0.74;;
23668;SDS011;12011;47.422;15.018;2024-02-26T12:51:15;0.86;;;0.86;;
23668;SDS011;12011;47.422;15.018;2024-02-26T12:54:07;0.87;;;0.87;;
23668;SDS011;12011;47.422;15.018;2024-02-26T12:56:58;0.52;;;0.52;;
23668;SDS011;12011;47.422;15.018;2024-02-26T12:59:49;0.92;;;0.92;;
23668;SDS011;12011;47.422;15.018;2024-02-26T13:02:39;0.59;;;0.59;;
23668;SDS011;12011;47.422;15.018;2024-02-26T13:05:34;0.91;;;0.91;;
23668;SDS011;12011;47.422;15.018;2024-02-26T13:08:24;0.67;;;0.67;;
23668;SDS011;12011;47.422;15.018;2024-02-26T13:11:14;0.77;;;0.77;;
23668;SDS011;12011;47.422;15.018;2024-02-26T13:14:04;0.86;;;0.86;;
23668;SDS011;12011;47.422;15.018;2024-02-26T13:16:54;0.95;;;0.95;;
23668;SDS011;12011;47.422;15.018;2024-02-26T13:19:50;0.70;;;0.70;;
23668;SDS011;12011;47.422;15.018;2024-02-26T13:22:43;0.82;;;0.82;;
23668;SDS011;12011;47.422;15.018;2024-02-26T13:25:33;0.99;;;0.99;;
23668;SDS011;12011;47.422;15.018;2024-02-26T13:28:24;0.97;;;0.97;;
23668;SDS011;12011;47.422;15.018;2024-02-26T13:31:14;0.89;;;0.89;;
23668;SDS011;12011;47.422;15.018;2024-02-26T13:34:04;1.09;;;1.09;;
23668;SDS011;12011;47.422;15.018;2024-02-26T13:36:54;0.71;;;0.71;;
23668;SDS011;12011;47.422;15.018;2024-02-26T13:39:47;0.72;;;0.72;;
23668;SDS011;12011;47.422;15.018;2024-02-26T13:42:36;0.93;;;0.93;;
23668;SDS011;12011;47.422;15.018;2024-02-26T13:45:27;0.88;;;0.88;;
23668;SDS011;12011;47.422;15.018;2024-02-26T13:48:24;0.88;;;0.88;;
23668;SDS011;12011;47.422;15.018;2024-02-26T13:51:13;0.80;;;0.80;;
23668;SDS011;12011;47.422;15.018;2024-02-26T13:54:03;1.10;;;1.10;;
23668;SDS011;12011;47.422;15.018;2024-02-26T13:56:55;1.05;;;1.05;;
23668;SDS011;12011;47.422;15.018;2024-02-26T13:59:45;0.91;;;0.91;;
23668;SDS011;12011;47.422;15.018;2024-02-26T14:02:36;0.94;;;0.94;;
23668;SDS011;12011;47.422;15.018;2024-02-26T14:05:26;0.92;;;0.92;;
23668;SDS011;12011;47.422;15.018;2024-02-26T14:08:16;0.98;;;0.97;;
23668;SDS011;12011;47.422;15.018;2024-02-26T14:11:06;0.83;;;0.82;;
23668;SDS011;12011;47.422;15.018;2024-02-26T14:13:58;0.75;;;0.74;;
23668;SDS011;12011;47.422;15.018;2024-02-26T14:16:47;0.85;;;0.85;;
23668;SDS011;12011;47.422;15.018;2024-02-26T14:19:37;0.80;;;0.80;;
23668;SDS011;12011;47.422;15.018;2024-02-26T14:22:29;0.94;;;0.94;;
23668;SDS011;12011;47.422;15.018;2024-02-26T14:25:19;0.81;;;0.81;;
23668;SDS011;12011;47.422;15.018;2024-02-26T14:28:09;0.88;;;0.88;;
23668;SDS011;12011;47.422;15.018;2024-02-26T14:31:02;0.95;;;0.95;;
23668;SDS011;12011;47.422;15.018;2024-02-26T14:33:53;0.89;;;0.89;;
23668;SDS011;12011;47.422;15.018;2024-02-26T14:36:42;0.96;;;0.96;;
23668;SDS011;12011;47.422;15.018;2024-02-26T14:39:32;1.04;;;1.04;;
23668;SDS011;12011;47.422;15.018;2024-02-26T14:42:22;1.08;;;1.08;;
23668;SDS011;12011;47.422;15.018;2024-02-26T14:45:12;1.11;;;1.11;;
23668;SDS011;12011;47.422;15.018;2024-02-26T14:48:05;1.19;;;1.19;;
23668;SDS011;12011;47.422;15.018;2024-02-26T14:50:57;1.31;;;1.31;;
23668;SDS011;12011;47.422;15.018;2024-02-26T14:53:47;1.73;;;1.73;;
23668;SDS011;12011;47.422;15.018;2024-02-26T14:56:37;1.41;;;1.41;;
23668;SDS011;12011;47.422;15.018;2024-02-26T14:59:27;0.96;;;0.96;;
23668;SDS011;12011;47.422;15.018;2024-02-26T15:02:17;1.39;;;1.39;;
23668;SDS011;12011;47.422;15.018;2024-02-26T15:05:09;1.22;;;1.22;;
23668;SDS011;12011;47.422;15.018;2024-02-26T15:07:59;1.40;;;1.40;;
23668;SDS011;12011;47.422;15.018;2024-02-26T15:10:49;1.13;;;1.13;;
23668;SDS011;12011;47.422;15.018;2024-02-26T15:13:39;1.29;;;1.28;;
23668;SDS011;12011;47.422;15.018;2024-02-26T15:16:29;1.26;;;1.25;;
23668;SDS011;12011;47.422;15.018;2024-02-26T15:19:18;1.21;;;1.20;;
23668;SDS011;12011;47.422;15.018;2024-02-26T15:22:10;1.05;;;1.05;;
23668;SDS011;12011;47.422;15.018;2024-02-26T15:25:00;0.89;;;0.89;;
23668;SDS011;12011;47.422;15.018;2024-02-26T15:27:50;0.88;;;0.88;;
23668;SDS011;12011;47.422;15.018;2024-02-26T15:30:40;0.86;;;0.86;;
23668;SDS011;12011;47.422;15.018;2024-02-26T15:33:29;0.91;;;0.91;;
23668;SDS011;12011;47.422;15.018;2024-02-26T15:36:19;0.84;;;0.84;;
23668;SDS011;12011;47.422;15.018;2024-02-26T15:39:12;0.93;;;0.93;;
23668;SDS011;12011;47.422;15.018;2024-02-26T15:42:01;1.03;;;1.03;;
23668;SDS011;12011;47.422;15.018;2024-02-26T15:47:54;1.04;;;1.04;;
23668;SDS011;12011;47.422;15.018;2024-02-26T15:50:23;0.98;;;0.98;;
23668;SDS011;12011;47.422;15.018;2024-02-26T15:52:53;1.04;;;1.04;;
23668;SDS011;12011;47.422;15.018;2024-02-26T15:55:26;0.97;;;0.97;;
23668;SDS011;12011;47.422;15.018;2024-02-26T15:57:55;0.78;;;0.78;;
23668;SDS011;12011;47.422;15.018;2024-02-26T16:00:25;0.86;;;0.86;;
23668;SDS011;12011;47.422;15.018;2024-02-26T16:02:54;0.92;;;0.92;;
23668;SDS011;12011;47.422;15.018;2024-02-26T16:05:24;0.86;;;0.86;;
23668;SDS011;12011;47.422;15.018;2024-02-26T16:07:54;0.86;;;0.86;;
23668;SDS011;12011;47.422;15.018;2024-02-26T16:10:32;1.02;;;1.02;;
23668;SDS011;12011;47.422;15.018;2024-02-26T16:13:05;1.12;;;1.11;;
23668;SDS011;12011;47.422;15.018;2024-02-26T16:15:35;1.14;;;1.14;;
23668;SDS011;12011;47.422;15.018;2024-02-26T16:18:05;1.17;;;1.17;;
23668;SDS011;12011;47.422;15.018;2024-02-26T16:20:34;1.06;;;1.06;;
23668;SDS011;12011;47.422;15.018;2024-02-26T16:23:04;0.98;;;0.98;;
23668;SDS011;12011;47.422;15.018;2024-02-26T16:25:36;0.96;;;0.96;;
23668;SDS011;12011;47.422;15.018;2024-02-26T16:28:06;0.69;;;0.69;;
23668;SDS011;12011;47.422;15.018;2024-02-26T16:30:35;0.83;;;0.83;;
23668;SDS011;12011;47.422;15.018;2024-02-26T16:33:04;0.79;;;0.79;;
23668;SDS011;12011;47.422;15.018;2024-02-26T16:35:34;1.16;;;1.16;;
23668;SDS011;12011;47.422;15.018;2024-02-26T16:38:03;1.64;;;1.64;;
23668;SDS011;12011;47.422;15.018;2024-02-26T16:40:33;2.54;;;2.54;;
23668;SDS011;12011;47.422;15.018;2024-02-26T16:43:05;1.90;;;1.90;;
23668;SDS011;12011;47.422;15.018;2024-02-26T16:45:34;1.96;;;1.96;;
23668;SDS011;12011;47.422;15.018;2024-02-26T16:48:05;2.15;;;2.15;;
23668;SDS011;12011;47.422;15.018;2024-02-26T16:50:35;2.30;;;2.29;;
23668;SDS011;12011;47.422;15.018;2024-02-26T16:53:04;3.14;;;3.13;;
23668;SDS011;12011;47.422;15.018;2024-02-26T16:55:36;3.26;;;3.24;;